sensor_id;sensor_type;location;lat;lon;timestamp;P1;durP1;ratioP1;P2;durP2;ratioP2
28613;SDS011;15806;53.548;9.964;2023-10-19T00:01:49;15.45;;;5.60;;
28613;SDS011;15806;53.548;9.964;2023-10-19T00:03:30;10.57;;;4.83;;
28613;SDS011;15806;53.548;9.964;2023-10-19T00:05:11;10.27;;;5.00;;
28613;SDS011;15806;53.548;9.964;2023-10-19T00:07:11;11.65;;;5.60;;
28613;SDS011;15806;53.548;9.964;2023-10-19T00:11:04;11.05;;;4.72;;
28613;SDS011;15806;53.548;9.964;2023-10-19T00:12:44;12.33;;;6.53;;
28613;SDS011;15806;53.548;9.964;2023-10-19T00:14:25;14.33;;;5.47;;
28613;SDS011;15806;53.548;9.964;2023-10-19T00:16:06;11.27;;;5.33;;
28613;SDS011;15806;53.548;9.964;2023-10-19T00:17:47;14.13;;;5.55;;
28613;SDS011;15806;53.548;9.964;2023-10-19T00:19:28;10.47;;;6.00;;
28613;SDS011;15806;53.548;9.964;2023-10-19T00:21:09;12.35;;;5.50;;
28613;SDS011;15806;53.548;9.964;2023-10-19T00:22:49;11.70;;;5.20;;
28613;SDS011;15806;53.548;9.964;2023-10-19T00:24:30;12.67;;;4.97;;
28613;SDS011;15806;53.548;9.964;2023-10-19T00:26:10;10.00;;;5.50;;
28613;SDS011;15806;53.548;9.964;2023-10-19T00:27:51;10.10;;;5.37;;
28613;SDS011;15806;53.548;9.964;2023-10-19T00:29:31;12.63;;;6.77;;
28613;SDS011;15806;53.548;9.964;2023-10-19T00:31:12;14.40;;;6.00;;
28613;SDS011;15806;53.548;9.964;2023-10-19T00:32:53;17.20;;;5.00;;
28613;SDS011;15806;53.548;9.964;2023-10-19T00:34:33;8.23;;;5.20;;
28613;SDS011;15806;53.548;9.964;2023-10-19T00:36:14;10.00;;;4.97;;
28613;SDS011;15806;53.548;9.964;2023-10-19T00:37:55;15.13;;;6.03;;
28613;SDS011;15806;53.548;9.964;2023-10-19T00:41:17;10.48;;;5.22;;
28613;SDS011;15806;53.548;9.964;2023-10-19T00:43:03;12.48;;;5.53;;
28613;SDS011;15806;53.548;9.964;2023-10-19T00:44:43;15.27;;;6.05;;
28613;SDS011;15806;53.548;9.964;2023-10-19T00:46:24;12.47;;;5.90;;
28613;SDS011;15806;53.548;9.964;2023-10-19T00:48:05;15.07;;;6.47;;
28613;SDS011;15806;53.548;9.964;2023-10-19T00:49:48;13.77;;;6.13;;
28613;SDS011;15806;53.548;9.964;2023-10-19T00:51:29;11.23;;;5.28;;
28613;SDS011;15806;53.548;9.964;2023-10-19T00:53:24;13.93;;;6.07;;
28613;SDS011;15806;53.548;9.964;2023-10-19T00:55:05;15.47;;;5.40;;
28613;SDS011;15806;53.548;9.964;2023-10-19T00:56:46;15.93;;;6.00;;
28613;SDS011;15806;53.548;9.964;2023-10-19T01:00:08;16.98;;;5.43;;
28613;SDS011;15806;53.548;9.964;2023-10-19T01:01:50;12.13;;;5.10;;
28613;SDS011;15806;53.548;9.964;2023-10-19T01:03:31;14.10;;;5.68;;
28613;SDS011;15806;53.548;9.964;2023-10-19T01:05:12;15.18;;;6.10;;
28613;SDS011;15806;53.548;9.964;2023-10-19T01:06:53;11.93;;;6.07;;
28613;SDS011;15806;53.548;9.964;2023-10-19T01:08:34;11.23;;;5.73;;
28613;SDS011;15806;53.548;9.964;2023-10-19T01:10:15;13.77;;;6.72;;
28613;SDS011;15806;53.548;9.964;2023-10-19T01:11:56;13.03;;;5.53;;
28613;SDS011;15806;53.548;9.964;2023-10-19T01:13:39;11.87;;;5.87;;
28613;SDS011;15806;53.548;9.964;2023-10-19T01:15:21;11.52;;;5.97;;
28613;SDS011;15806;53.548;9.964;2023-10-19T01:17:02;11.77;;;6.03;;
28613;SDS011;15806;53.548;9.964;2023-10-19T01:18:42;9.87;;;5.20;;
28613;SDS011;15806;53.548;9.964;2023-10-19T01:22:04;16.83;;;5.65;;
28613;SDS011;15806;53.548;9.964;2023-10-19T01:23:45;11.33;;;5.10;;
28613;SDS011;15806;53.548;9.964;2023-10-19T01:25:26;14.65;;;5.97;;
28613;SDS011;15806;53.548;9.964;2023-10-19T01:27:06;11.63;;;5.50;;
28613;SDS011;15806;53.548;9.964;2023-10-19T01:28:47;13.90;;;6.00;;
28613;SDS011;15806;53.548;9.964;2023-10-19T01:30:28;10.73;;;4.93;;
28613;SDS011;15806;53.548;9.964;2023-10-19T01:32:08;11.27;;;4.60;;
28613;SDS011;15806;53.548;9.964;2023-10-19T01:33:49;11.87;;;6.07;;
28613;SDS011;15806;53.548;9.964;2023-10-19T01:35:30;11.47;;;5.20;;
28613;SDS011;15806;53.548;9.964;2023-10-19T01:37:10;12.32;;;5.55;;
28613;SDS011;15806;53.548;9.964;2023-10-19T01:38:51;13.30;;;5.87;;
28613;SDS011;15806;53.548;9.964;2023-10-19T01:40:32;17.23;;;5.63;;
28613;SDS011;15806;53.548;9.964;2023-10-19T01:42:13;10.83;;;5.60;;
28613;SDS011;15806;53.548;9.964;2023-10-19T01:43:54;15.17;;;5.80;;
28613;SDS011;15806;53.548;9.964;2023-10-19T01:45:34;13.93;;;5.68;;
28613;SDS011;15806;53.548;9.964;2023-10-19T01:47:15;12.50;;;5.73;;
28613;SDS011;15806;53.548;9.964;2023-10-19T01:48:55;12.77;;;5.60;;
28613;SDS011;15806;53.548;9.964;2023-10-19T01:50:37;18.57;;;6.40;;
28613;SDS011;15806;53.548;9.964;2023-10-19T01:52:17;12.77;;;6.07;;
28613;SDS011;15806;53.548;9.964;2023-10-19T01:53:58;10.77;;;5.23;;
28613;SDS011;15806;53.548;9.964;2023-10-19T01:55:39;11.50;;;5.20;;
28613;SDS011;15806;53.548;9.964;2023-10-19T01:57:20;15.07;;;6.07;;
28613;SDS011;15806;53.548;9.964;2023-10-19T01:59:00;12.40;;;5.37;;
28613;SDS011;15806;53.548;9.964;2023-10-19T02:00:41;14.10;;;4.75;;
28613;SDS011;15806;53.548;9.964;2023-10-19T02:02:22;14.87;;;6.20;;
28613;SDS011;15806;53.548;9.964;2023-10-19T02:04:05;15.90;;;6.07;;
28613;SDS011;15806;53.548;9.964;2023-10-19T02:05:46;11.98;;;5.35;;
28613;SDS011;15806;53.548;9.964;2023-10-19T02:07:26;15.77;;;5.87;;
28613;SDS011;15806;53.548;9.964;2023-10-19T02:09:11;13.90;;;5.73;;
28613;SDS011;15806;53.548;9.964;2023-10-19T02:10:52;10.30;;;5.35;;
28613;SDS011;15806;53.548;9.964;2023-10-19T02:12:33;10.90;;;5.13;;
28613;SDS011;15806;53.548;9.964;2023-10-19T02:14:17;11.77;;;5.97;;
28613;SDS011;15806;53.548;9.964;2023-10-19T02:15:58;12.82;;;5.88;;
28613;SDS011;15806;53.548;9.964;2023-10-19T02:17:39;11.87;;;5.57;;
28613;SDS011;15806;53.548;9.964;2023-10-19T02:19:20;12.83;;;6.23;;
28613;SDS011;15806;53.548;9.964;2023-10-19T02:21:01;14.18;;;5.85;;
28613;SDS011;15806;53.548;9.964;2023-10-19T02:22:41;10.70;;;5.67;;
28613;SDS011;15806;53.548;9.964;2023-10-19T02:24:22;14.40;;;6.17;;
28613;SDS011;15806;53.548;9.964;2023-10-19T02:26:03;12.50;;;4.83;;
28613;SDS011;15806;53.548;9.964;2023-10-19T02:27:43;10.67;;;4.77;;
28613;SDS011;15806;53.548;9.964;2023-10-19T02:29:24;16.30;;;6.73;;
28613;SDS011;15806;53.548;9.964;2023-10-19T02:31:04;9.53;;;4.90;;
28613;SDS011;15806;53.548;9.964;2023-10-19T02:32:45;13.70;;;5.60;;
28613;SDS011;15806;53.548;9.964;2023-10-19T02:34:26;16.30;;;6.50;;
28613;SDS011;15806;53.548;9.964;2023-10-19T02:36:06;13.93;;;5.97;;
28613;SDS011;15806;53.548;9.964;2023-10-19T02:37:47;12.77;;;5.77;;
28613;SDS011;15806;53.548;9.964;2023-10-19T02:39:27;21.00;;;5.60;;
28613;SDS011;15806;53.548;9.964;2023-10-19T02:41:08;12.93;;;5.73;;
28613;SDS011;15806;53.548;9.964;2023-10-19T02:42:48;13.30;;;5.77;;
28613;SDS011;15806;53.548;9.964;2023-10-19T02:44:29;14.93;;;6.10;;
28613;SDS011;15806;53.548;9.964;2023-10-19T02:46:09;13.23;;;6.27;;
28613;SDS011;15806;53.548;9.964;2023-10-19T02:47:50;17.17;;;7.13;;
28613;SDS011;15806;53.548;9.964;2023-10-19T02:49:30;12.47;;;5.90;;
28613;SDS011;15806;53.548;9.964;2023-10-19T02:51:11;13.90;;;5.70;;
28613;SDS011;15806;53.548;9.964;2023-10-19T02:52:52;12.63;;;5.80;;
28613;SDS011;15806;53.548;9.964;2023-10-19T02:54:33;14.47;;;6.83;;
28613;SDS011;15806;53.548;9.964;2023-10-19T02:56:14;13.73;;;6.00;;
28613;SDS011;15806;53.548;9.964;2023-10-19T02:57:55;12.88;;;5.15;;
28613;SDS011;15806;53.548;9.964;2023-10-19T02:59:36;13.43;;;6.33;;
28613;SDS011;15806;53.548;9.964;2023-10-19T03:01:17;13.93;;;5.50;;
28613;SDS011;15806;53.548;9.964;2023-10-19T03:02:59;13.48;;;6.55;;
28613;SDS011;15806;53.548;9.964;2023-10-19T03:04:39;14.57;;;6.60;;
28613;SDS011;15806;53.548;9.964;2023-10-19T03:06:21;12.95;;;5.93;;
28613;SDS011;15806;53.548;9.964;2023-10-19T03:08:01;13.68;;;6.65;;
28613;SDS011;15806;53.548;9.964;2023-10-19T03:09:42;16.50;;;6.10;;
28613;SDS011;15806;53.548;9.964;2023-10-19T03:11:25;12.30;;;5.30;;
28613;SDS011;15806;53.548;9.964;2023-10-19T03:13:07;17.30;;;7.22;;
28613;SDS011;15806;53.548;9.964;2023-10-19T03:16:29;12.85;;;5.10;;
28613;SDS011;15806;53.548;9.964;2023-10-19T03:18:09;13.13;;;6.20;;
28613;SDS011;15806;53.548;9.964;2023-10-19T03:19:50;18.47;;;6.43;;
28613;SDS011;15806;53.548;9.964;2023-10-19T03:21:30;11.80;;;5.80;;
28613;SDS011;15806;53.548;9.964;2023-10-19T03:23:10;15.07;;;6.17;;
28613;SDS011;15806;53.548;9.964;2023-10-19T03:24:51;16.57;;;6.90;;
28613;SDS011;15806;53.548;9.964;2023-10-19T03:26:32;15.93;;;5.83;;
28613;SDS011;15806;53.548;9.964;2023-10-19T03:28:12;14.37;;;6.40;;
28613;SDS011;15806;53.548;9.964;2023-10-19T03:29:52;16.93;;;6.23;;
28613;SDS011;15806;53.548;9.964;2023-10-19T03:31:33;14.63;;;6.82;;
28613;SDS011;15806;53.548;9.964;2023-10-19T03:33:14;16.27;;;7.07;;
28613;SDS011;15806;53.548;9.964;2023-10-19T03:34:55;17.83;;;6.40;;
28613;SDS011;15806;53.548;9.964;2023-10-19T03:36:36;14.60;;;6.53;;
28613;SDS011;15806;53.548;9.964;2023-10-19T03:38:16;14.43;;;6.40;;
28613;SDS011;15806;53.548;9.964;2023-10-19T03:39:57;14.73;;;6.93;;
28613;SDS011;15806;53.548;9.964;2023-10-19T03:41:38;16.93;;;6.30;;
28613;SDS011;15806;53.548;9.964;2023-10-19T03:45:00;15.23;;;6.75;;
28613;SDS011;15806;53.548;9.964;2023-10-19T03:46:40;17.60;;;6.77;;
28613;SDS011;15806;53.548;9.964;2023-10-19T03:48:21;15.00;;;6.40;;
28613;SDS011;15806;53.548;9.964;2023-10-19T03:50:01;17.07;;;5.30;;
28613;SDS011;15806;53.548;9.964;2023-10-19T03:51:42;15.07;;;7.07;;
28613;SDS011;15806;53.548;9.964;2023-10-19T03:53:23;21.10;;;7.33;;
28613;SDS011;15806;53.548;9.964;2023-10-19T03:55:03;20.33;;;8.17;;
28613;SDS011;15806;53.548;9.964;2023-10-19T03:56:44;17.73;;;8.15;;
28613;SDS011;15806;53.548;9.964;2023-10-19T03:58:25;15.53;;;7.40;;
28613;SDS011;15806;53.548;9.964;2023-10-19T04:00:05;16.97;;;7.60;;
28613;SDS011;15806;53.548;9.964;2023-10-19T04:01:46;15.98;;;7.43;;
28613;SDS011;15806;53.548;9.964;2023-10-19T04:03:27;18.13;;;7.43;;
28613;SDS011;15806;53.548;9.964;2023-10-19T04:05:10;17.90;;;7.33;;
28613;SDS011;15806;53.548;9.964;2023-10-19T04:06:52;25.77;;;7.60;;
28613;SDS011;15806;53.548;9.964;2023-10-19T04:08:32;17.33;;;7.43;;
28613;SDS011;15806;53.548;9.964;2023-10-19T04:10:13;17.53;;;7.60;;
28613;SDS011;15806;53.548;9.964;2023-10-19T04:11:55;16.90;;;8.40;;
28613;SDS011;15806;53.548;9.964;2023-10-19T04:13:36;17.70;;;6.93;;
28613;SDS011;15806;53.548;9.964;2023-10-19T04:15:16;17.73;;;7.63;;
28613;SDS011;15806;53.548;9.964;2023-10-19T04:16:57;19.07;;;6.93;;
28613;SDS011;15806;53.548;9.964;2023-10-19T04:18:37;32.67;;;7.97;;
28613;SDS011;15806;53.548;9.964;2023-10-19T04:20:18;18.93;;;7.10;;
28613;SDS011;15806;53.548;9.964;2023-10-19T04:21:59;23.90;;;8.85;;
28613;SDS011;15806;53.548;9.964;2023-10-19T04:23:39;17.77;;;7.17;;
28613;SDS011;15806;53.548;9.964;2023-10-19T04:25:20;19.63;;;8.23;;
28613;SDS011;15806;53.548;9.964;2023-10-19T04:27:00;18.87;;;7.93;;
28613;SDS011;15806;53.548;9.964;2023-10-19T04:28:41;16.80;;;7.57;;
28613;SDS011;15806;53.548;9.964;2023-10-19T04:30:21;23.53;;;8.17;;
28613;SDS011;15806;53.548;9.964;2023-10-19T04:32:02;18.10;;;7.53;;
28613;SDS011;15806;53.548;9.964;2023-10-19T04:33:43;19.17;;;7.03;;
28613;SDS011;15806;53.548;9.964;2023-10-19T04:35:23;15.80;;;7.03;;
28613;SDS011;15806;53.548;9.964;2023-10-19T04:37:04;17.13;;;7.13;;
28613;SDS011;15806;53.548;9.964;2023-10-19T04:38:44;17.80;;;7.80;;
28613;SDS011;15806;53.548;9.964;2023-10-19T04:40:25;24.30;;;9.37;;
28613;SDS011;15806;53.548;9.964;2023-10-19T04:42:05;23.77;;;7.77;;
28613;SDS011;15806;53.548;9.964;2023-10-19T04:43:46;15.13;;;6.90;;
28613;SDS011;15806;53.548;9.964;2023-10-19T04:45:26;18.90;;;8.30;;
28613;SDS011;15806;53.548;9.964;2023-10-19T04:47:07;20.33;;;7.63;;
28613;SDS011;15806;53.548;9.964;2023-10-19T04:48:47;23.30;;;8.57;;
28613;SDS011;15806;53.548;9.964;2023-10-19T04:50:28;16.00;;;6.80;;
28613;SDS011;15806;53.548;9.964;2023-10-19T04:52:08;16.47;;;6.83;;
28613;SDS011;15806;53.548;9.964;2023-10-19T04:53:49;23.80;;;7.57;;
28613;SDS011;15806;53.548;9.964;2023-10-19T04:55:29;18.27;;;8.03;;
28613;SDS011;15806;53.548;9.964;2023-10-19T04:57:10;27.60;;;8.27;;
28613;SDS011;15806;53.548;9.964;2023-10-19T04:58:51;21.77;;;7.80;;
28613;SDS011;15806;53.548;9.964;2023-10-19T05:00:31;19.97;;;7.97;;
28613;SDS011;15806;53.548;9.964;2023-10-19T05:02:12;21.53;;;8.27;;
28613;SDS011;15806;53.548;9.964;2023-10-19T05:03:53;22.50;;;7.60;;
28613;SDS011;15806;53.548;9.964;2023-10-19T05:05:33;18.47;;;7.60;;
28613;SDS011;15806;53.548;9.964;2023-10-19T05:07:14;18.80;;;8.30;;
28613;SDS011;15806;53.548;9.964;2023-10-19T05:08:54;19.17;;;8.23;;
28613;SDS011;15806;53.548;9.964;2023-10-19T05:10:35;22.13;;;7.90;;
28613;SDS011;15806;53.548;9.964;2023-10-19T05:12:15;22.23;;;7.93;;
28613;SDS011;15806;53.548;9.964;2023-10-19T05:13:56;20.43;;;7.87;;
28613;SDS011;15806;53.548;9.964;2023-10-19T05:15:36;24.77;;;8.30;;
28613;SDS011;15806;53.548;9.964;2023-10-19T05:17:17;21.73;;;7.93;;
28613;SDS011;15806;53.548;9.964;2023-10-19T05:18:57;25.53;;;9.67;;
28613;SDS011;15806;53.548;9.964;2023-10-19T05:20:38;18.53;;;7.77;;
28613;SDS011;15806;53.548;9.964;2023-10-19T05:22:18;18.03;;;7.67;;
28613;SDS011;15806;53.548;9.964;2023-10-19T05:23:59;24.27;;;9.07;;
28613;SDS011;15806;53.548;9.964;2023-10-19T05:25:40;22.48;;;9.07;;
28613;SDS011;15806;53.548;9.964;2023-10-19T05:27:20;23.37;;;8.97;;
28613;SDS011;15806;53.548;9.964;2023-10-19T05:29:01;23.27;;;8.60;;
28613;SDS011;15806;53.548;9.964;2023-10-19T05:30:41;22.97;;;8.47;;
28613;SDS011;15806;53.548;9.964;2023-10-19T05:32:22;18.70;;;8.83;;
28613;SDS011;15806;53.548;9.964;2023-10-19T05:34:02;17.47;;;7.20;;
28613;SDS011;15806;53.548;9.964;2023-10-19T05:35:43;19.13;;;8.53;;
28613;SDS011;15806;53.548;9.964;2023-10-19T05:37:23;20.07;;;8.43;;
28613;SDS011;15806;53.548;9.964;2023-10-19T05:39:04;24.63;;;7.87;;
28613;SDS011;15806;53.548;9.964;2023-10-19T05:40:45;19.17;;;8.37;;
28613;SDS011;15806;53.548;9.964;2023-10-19T05:42:25;22.97;;;8.90;;
28613;SDS011;15806;53.548;9.964;2023-10-19T05:44:06;21.83;;;9.00;;
28613;SDS011;15806;53.548;9.964;2023-10-19T05:45:46;23.30;;;8.37;;
28613;SDS011;15806;53.548;9.964;2023-10-19T05:47:27;21.33;;;8.53;;
28613;SDS011;15806;53.548;9.964;2023-10-19T05:49:07;18.00;;;8.47;;
28613;SDS011;15806;53.548;9.964;2023-10-19T05:50:48;20.63;;;8.57;;
28613;SDS011;15806;53.548;9.964;2023-10-19T05:52:28;19.23;;;8.03;;
28613;SDS011;15806;53.548;9.964;2023-10-19T05:54:09;18.40;;;7.47;;
28613;SDS011;15806;53.548;9.964;2023-10-19T05:55:49;19.07;;;7.83;;
28613;SDS011;15806;53.548;9.964;2023-10-19T05:57:30;25.30;;;8.17;;
28613;SDS011;15806;53.548;9.964;2023-10-19T05:59:10;23.90;;;8.57;;
28613;SDS011;15806;53.548;9.964;2023-10-19T06:00:51;20.47;;;8.53;;
28613;SDS011;15806;53.548;9.964;2023-10-19T06:02:31;17.17;;;7.70;;
28613;SDS011;15806;53.548;9.964;2023-10-19T06:04:12;18.73;;;7.77;;
28613;SDS011;15806;53.548;9.964;2023-10-19T06:05:53;19.73;;;8.00;;
28613;SDS011;15806;53.548;9.964;2023-10-19T06:07:33;20.83;;;8.33;;
28613;SDS011;15806;53.548;9.964;2023-10-19T06:09:14;21.67;;;8.43;;
28613;SDS011;15806;53.548;9.964;2023-10-19T06:10:54;19.03;;;7.43;;
28613;SDS011;15806;53.548;9.964;2023-10-19T06:12:35;21.17;;;8.80;;
28613;SDS011;15806;53.548;9.964;2023-10-19T06:14:15;21.13;;;8.13;;
28613;SDS011;15806;53.548;9.964;2023-10-19T06:15:56;17.40;;;8.30;;
28613;SDS011;15806;53.548;9.964;2023-10-19T06:17:37;22.77;;;8.97;;
28613;SDS011;15806;53.548;9.964;2023-10-19T06:19:21;22.30;;;8.88;;
28613;SDS011;15806;53.548;9.964;2023-10-19T06:21:01;18.33;;;7.70;;
28613;SDS011;15806;53.548;9.964;2023-10-19T06:22:42;25.80;;;9.03;;
28613;SDS011;15806;53.548;9.964;2023-10-19T06:24:22;21.87;;;9.63;;
28613;SDS011;15806;53.548;9.964;2023-10-19T06:26:09;23.60;;;8.63;;
28613;SDS011;15806;53.548;9.964;2023-10-19T06:27:51;23.60;;;8.88;;
28613;SDS011;15806;53.548;9.964;2023-10-19T06:29:32;25.40;;;9.23;;
28613;SDS011;15806;53.548;9.964;2023-10-19T06:31:13;19.50;;;8.53;;
28613;SDS011;15806;53.548;9.964;2023-10-19T06:32:54;18.67;;;8.60;;
28613;SDS011;15806;53.548;9.964;2023-10-19T06:34:36;20.10;;;7.57;;
28613;SDS011;15806;53.548;9.964;2023-10-19T06:36:16;15.60;;;7.70;;
28613;SDS011;15806;53.548;9.964;2023-10-19T06:37:57;21.37;;;9.83;;
28613;SDS011;15806;53.548;9.964;2023-10-19T06:39:38;23.58;;;9.55;;
28613;SDS011;15806;53.548;9.964;2023-10-19T06:41:19;24.13;;;8.53;;
28613;SDS011;15806;53.548;9.964;2023-10-19T06:42:59;20.43;;;8.27;;
28613;SDS011;15806;53.548;9.964;2023-10-19T06:44:40;16.07;;;7.23;;
28613;SDS011;15806;53.548;9.964;2023-10-19T06:46:21;20.67;;;7.45;;
28613;SDS011;15806;53.548;9.964;2023-10-19T06:48:01;29.33;;;9.00;;
28613;SDS011;15806;53.548;9.964;2023-10-19T06:49:42;21.13;;;8.77;;
28613;SDS011;15806;53.548;9.964;2023-10-19T06:51:22;15.70;;;6.30;;
28613;SDS011;15806;53.548;9.964;2023-10-19T06:53:03;25.30;;;7.93;;
28613;SDS011;15806;53.548;9.964;2023-10-19T06:54:44;27.87;;;8.60;;
28613;SDS011;15806;53.548;9.964;2023-10-19T06:56:24;19.87;;;7.77;;
28613;SDS011;15806;53.548;9.964;2023-10-19T06:58:05;28.47;;;10.13;;
28613;SDS011;15806;53.548;9.964;2023-10-19T06:59:45;20.30;;;7.33;;
28613;SDS011;15806;53.548;9.964;2023-10-19T07:01:26;23.50;;;8.83;;
28613;SDS011;15806;53.548;9.964;2023-10-19T07:03:06;23.37;;;9.43;;
28613;SDS011;15806;53.548;9.964;2023-10-19T07:04:47;20.63;;;7.77;;
28613;SDS011;15806;53.548;9.964;2023-10-19T07:06:27;17.13;;;7.40;;
28613;SDS011;15806;53.548;9.964;2023-10-19T07:08:08;20.70;;;7.37;;
28613;SDS011;15806;53.548;9.964;2023-10-19T07:09:48;18.63;;;7.13;;
28613;SDS011;15806;53.548;9.964;2023-10-19T07:11:29;17.77;;;8.27;;
28613;SDS011;15806;53.548;9.964;2023-10-19T07:13:09;24.47;;;7.90;;
28613;SDS011;15806;53.548;9.964;2023-10-19T07:14:50;18.20;;;7.87;;
28613;SDS011;15806;53.548;9.964;2023-10-19T07:16:30;20.43;;;8.53;;
28613;SDS011;15806;53.548;9.964;2023-10-19T07:18:11;19.10;;;8.07;;
28613;SDS011;15806;53.548;9.964;2023-10-19T07:19:51;19.93;;;8.20;;
28613;SDS011;15806;53.548;9.964;2023-10-19T07:21:32;19.23;;;8.17;;
28613;SDS011;15806;53.548;9.964;2023-10-19T07:23:12;19.60;;;8.03;;
28613;SDS011;15806;53.548;9.964;2023-10-19T07:24:53;15.63;;;6.80;;
28613;SDS011;15806;53.548;9.964;2023-10-19T07:26:33;21.47;;;9.27;;
28613;SDS011;15806;53.548;9.964;2023-10-19T07:28:17;20.53;;;9.00;;
28613;SDS011;15806;53.548;9.964;2023-10-19T07:29:58;18.20;;;7.70;;
28613;SDS011;15806;53.548;9.964;2023-10-19T07:31:38;20.47;;;8.27;;
28613;SDS011;15806;53.548;9.964;2023-10-19T07:33:19;21.67;;;8.83;;
28613;SDS011;15806;53.548;9.964;2023-10-19T07:34:59;20.95;;;8.90;;
28613;SDS011;15806;53.548;9.964;2023-10-19T07:36:40;21.23;;;8.90;;
28613;SDS011;15806;53.548;9.964;2023-10-19T07:38:21;23.43;;;8.27;;
28613;SDS011;15806;53.548;9.964;2023-10-19T07:40:02;21.83;;;7.45;;
28613;SDS011;15806;53.548;9.964;2023-10-19T07:41:43;23.87;;;8.40;;
28613;SDS011;15806;53.548;9.964;2023-10-19T07:43:23;20.80;;;7.23;;
28613;SDS011;15806;53.548;9.964;2023-10-19T07:45:04;27.03;;;7.37;;
28613;SDS011;15806;53.548;9.964;2023-10-19T07:46:45;18.65;;;7.88;;
28613;SDS011;15806;53.548;9.964;2023-10-19T07:48:25;25.23;;;8.63;;
28613;SDS011;15806;53.548;9.964;2023-10-19T07:50:09;20.23;;;8.17;;
28613;SDS011;15806;53.548;9.964;2023-10-19T07:51:51;25.42;;;9.73;;
28613;SDS011;15806;53.548;9.964;2023-10-19T07:53:31;21.63;;;7.97;;
28613;SDS011;15806;53.548;9.964;2023-10-19T07:55:12;23.47;;;9.13;;
28613;SDS011;15806;53.548;9.964;2023-10-19T07:56:52;20.77;;;8.97;;
28613;SDS011;15806;53.548;9.964;2023-10-19T07:58:34;22.60;;;9.02;;
28613;SDS011;15806;53.548;9.964;2023-10-19T08:00:14;25.93;;;8.60;;
28613;SDS011;15806;53.548;9.964;2023-10-19T08:01:56;24.13;;;9.20;;
28613;SDS011;15806;53.548;9.964;2023-10-19T08:03:37;32.23;;;10.33;;
28613;SDS011;15806;53.548;9.964;2023-10-19T08:05:17;28.30;;;9.17;;
28613;SDS011;15806;53.548;9.964;2023-10-19T08:06:58;24.13;;;10.30;;
28613;SDS011;15806;53.548;9.964;2023-10-19T08:08:39;25.23;;;10.27;;
28613;SDS011;15806;53.548;9.964;2023-10-19T08:10:19;27.37;;;10.00;;
28613;SDS011;15806;53.548;9.964;2023-10-19T08:12:00;23.70;;;9.73;;
28613;SDS011;15806;53.548;9.964;2023-10-19T08:13:41;29.33;;;9.87;;
28613;SDS011;15806;53.548;9.964;2023-10-19T08:15:21;25.93;;;9.50;;
28613;SDS011;15806;53.548;9.964;2023-10-19T08:17:02;21.73;;;8.60;;
28613;SDS011;15806;53.548;9.964;2023-10-19T08:18:43;24.47;;;8.53;;
28613;SDS011;15806;53.548;9.964;2023-10-19T08:20:23;21.43;;;8.50;;
28613;SDS011;15806;53.548;9.964;2023-10-19T08:22:04;30.30;;;10.07;;
28613;SDS011;15806;53.548;9.964;2023-10-19T08:23:44;22.03;;;8.63;;
28613;SDS011;15806;53.548;9.964;2023-10-19T08:25:25;19.50;;;8.50;;
28613;SDS011;15806;53.548;9.964;2023-10-19T08:27:06;24.70;;;9.40;;
28613;SDS011;15806;53.548;9.964;2023-10-19T08:28:46;16.37;;;7.83;;
28613;SDS011;15806;53.548;9.964;2023-10-19T08:30:27;21.33;;;8.47;;
28613;SDS011;15806;53.548;9.964;2023-10-19T08:32:07;28.07;;;9.50;;
28613;SDS011;15806;53.548;9.964;2023-10-19T08:33:48;19.70;;;7.97;;
28613;SDS011;15806;53.548;9.964;2023-10-19T08:35:28;21.83;;;9.10;;
28613;SDS011;15806;53.548;9.964;2023-10-19T08:37:09;21.00;;;9.57;;
28613;SDS011;15806;53.548;9.964;2023-10-19T08:38:49;27.63;;;9.03;;
28613;SDS011;15806;53.548;9.964;2023-10-19T08:40:30;22.97;;;9.10;;
28613;SDS011;15806;53.548;9.964;2023-10-19T08:42:10;20.63;;;9.23;;
28613;SDS011;15806;53.548;9.964;2023-10-19T08:43:51;26.67;;;9.83;;
28613;SDS011;15806;53.548;9.964;2023-10-19T08:45:31;29.60;;;10.50;;
28613;SDS011;15806;53.548;9.964;2023-10-19T08:47:14;20.38;;;9.40;;
28613;SDS011;15806;53.548;9.964;2023-10-19T08:48:58;30.27;;;9.60;;
28613;SDS011;15806;53.548;9.964;2023-10-19T08:50:38;19.02;;;8.55;;
28613;SDS011;15806;53.548;9.964;2023-10-19T08:52:20;23.43;;;9.10;;
28613;SDS011;15806;53.548;9.964;2023-10-19T08:54:03;24.55;;;9.38;;
28613;SDS011;15806;53.548;9.964;2023-10-19T08:55:45;26.38;;;10.20;;
28613;SDS011;15806;53.548;9.964;2023-10-19T08:57:26;25.40;;;9.77;;
28613;SDS011;15806;53.548;9.964;2023-10-19T08:59:07;23.43;;;9.73;;
28613;SDS011;15806;53.548;9.964;2023-10-19T09:00:51;17.73;;;8.18;;
28613;SDS011;15806;53.548;9.964;2023-10-19T09:02:32;22.40;;;8.95;;
28613;SDS011;15806;53.548;9.964;2023-10-19T09:04:12;20.77;;;9.23;;
28613;SDS011;15806;53.548;9.964;2023-10-19T09:05:53;26.35;;;10.23;;
28613;SDS011;15806;53.548;9.964;2023-10-19T09:07:34;24.02;;;9.93;;
28613;SDS011;15806;53.548;9.964;2023-10-19T09:09:15;29.20;;;10.23;;
28613;SDS011;15806;53.548;9.964;2023-10-19T09:10:55;29.37;;;10.40;;
28613;SDS011;15806;53.548;9.964;2023-10-19T09:12:45;24.33;;;9.90;;
28613;SDS011;15806;53.548;9.964;2023-10-19T09:14:41;21.40;;;9.27;;
28613;SDS011;15806;53.548;9.964;2023-10-19T09:16:21;21.23;;;9.30;;
28613;SDS011;15806;53.548;9.964;2023-10-19T09:18:15;27.15;;;9.98;;
28613;SDS011;15806;53.548;9.964;2023-10-19T09:19:55;28.10;;;11.40;;
28613;SDS011;15806;53.548;9.964;2023-10-19T09:21:36;19.57;;;9.50;;
28613;SDS011;15806;53.548;9.964;2023-10-19T09:23:20;23.88;;;10.70;;
28613;SDS011;15806;53.548;9.964;2023-10-19T09:25:02;29.80;;;10.00;;
28613;SDS011;15806;53.548;9.964;2023-10-19T09:26:42;28.03;;;11.27;;
28613;SDS011;15806;53.548;9.964;2023-10-19T09:28:23;25.33;;;9.83;;
28613;SDS011;15806;53.548;9.964;2023-10-19T09:30:05;25.50;;;9.60;;
28613;SDS011;15806;53.548;9.964;2023-10-19T09:31:48;27.08;;;11.23;;
28613;SDS011;15806;53.548;9.964;2023-10-19T09:33:31;25.17;;;10.20;;
28613;SDS011;15806;53.548;9.964;2023-10-19T09:35:14;27.20;;;10.80;;
28613;SDS011;15806;53.548;9.964;2023-10-19T09:38:35;23.05;;;10.43;;
28613;SDS011;15806;53.548;9.964;2023-10-19T09:40:16;23.10;;;9.30;;
28613;SDS011;15806;53.548;9.964;2023-10-19T09:41:57;19.63;;;9.50;;
28613;SDS011;15806;53.548;9.964;2023-10-19T09:45:23;29.40;;;10.15;;
28613;SDS011;15806;53.548;9.964;2023-10-19T09:47:12;22.80;;;9.55;;
28613;SDS011;15806;53.548;9.964;2023-10-19T09:50:53;21.98;;;8.55;;
28613;SDS011;15806;53.548;9.964;2023-10-19T09:52:35;22.70;;;9.38;;
28613;SDS011;15806;53.548;9.964;2023-10-19T09:54:20;25.73;;;9.88;;
28613;SDS011;15806;53.548;9.964;2023-10-19T09:56:28;20.58;;;10.15;;
28613;SDS011;15806;53.548;9.964;2023-10-19T09:58:17;24.33;;;9.98;;
28613;SDS011;15806;53.548;9.964;2023-10-19T10:00:03;22.27;;;8.93;;
28613;SDS011;15806;53.548;9.964;2023-10-19T10:03:48;20.80;;;9.13;;
28613;SDS011;15806;53.548;9.964;2023-10-19T10:07:22;22.38;;;9.57;;
28613;SDS011;15806;53.548;9.964;2023-10-19T10:09:10;25.20;;;10.60;;
28613;SDS011;15806;53.548;9.964;2023-10-19T10:10:57;26.05;;;10.85;;
28613;SDS011;15806;53.548;9.964;2023-10-19T10:12:38;26.27;;;10.57;;
28613;SDS011;15806;53.548;9.964;2023-10-19T10:14:22;23.33;;;9.60;;
28613;SDS011;15806;53.548;9.964;2023-10-19T10:16:07;24.08;;;9.77;;
28613;SDS011;15806;53.548;9.964;2023-10-19T10:17:49;20.38;;;9.40;;
28613;SDS011;15806;53.548;9.964;2023-10-19T10:19:31;25.25;;;11.07;;
28613;SDS011;15806;53.548;9.964;2023-10-19T10:21:15;22.33;;;10.57;;